Time;durP1;ratioP1;P1;durP2;ratioP2;P2;SDS_P1;SDS_P2;PMS_P1;PMS_P2;Temp;Humidity;BMP_temperature;BMP_pressure;BME280_temperature;BME280_humidity;BME280_pressure;Samples;Min_cycle;Max_cycle;Signal;HPM_P1;HPM_P2
2023/10/16 00:01:03;;;;;;;;;;;8.90;99.90;;;;;;5119004;28;19963;-57
2023/10/16 00:03:30;;;;;;;;;;;8.90;99.90;;;;;;5119248;28;19916;-57
2023/10/16 00:05:56;;;;;;;;;;;8.80;99.90;;;;;;5118796;28;19922;-57
2023/10/16 00:08:22;;;;;;;;;;;8.80;99.90;;;;;;5118915;28;20350;-57
2023/10/16 00:10:57;;;;;;;;;;;8.80;99.90;;;;;;5119059;28;19914;-57
2023/10/16 00:13:26;;;;;;;;;;;8.80;99.90;;;;;;5101114;28;19912;-57
2023/10/16 00:15:54;;;;;;;;;;;8.70;99.90;;;;;;5098592;28;19916;-57
2023/10/16 00:18:23;;;;;;;;;;;8.50;99.90;;;;;;5118161;28;19931;-57
2023/10/16 00:20:52;;;;;;;;;;;8.50;99.90;;;;;;5118900;28;20239;-57
2023/10/16 00:23:18;;;;;;;;;;;8.50;99.90;;;;;;5118814;28;19938;-57
2023/10/16 00:25:44;;;;;;;;;;;8.40;99.90;;;;;;5118669;28;20392;-57
2023/10/16 00:28:11;;;;;;;;;;;8.30;99.90;;;;;;5118710;28;19911;-57
2023/10/16 00:30:40;;;;;;;;;;;8.20;99.90;;;;;;5117315;28;19911;-57
2023/10/16 00:33:08;;;;;;;;;;;8.20;99.90;;;;;;5117317;28;19912;-57
2023/10/16 00:35:34;;;;;;;;;;;8.10;99.90;;;;;;5118616;28;19912;-57
2023/10/16 00:38:03;;;;;;;;;;;8.10;99.90;;;;;;5118542;28;19961;-58
2023/10/16 00:40:32;;;;;;;;;;;8.10;99.90;;;;;;5117031;28;20312;-57
2023/10/16 00:43:20;;;;;;;;;;;8.00;99.90;;;;;;5116279;28;19919;-57
2023/10/16 00:45:48;;;;;;;;;;;8.00;99.90;;;;;;5118374;28;19916;-57
2023/10/16 00:48:17;;;;;;;;;;;8.00;99.90;;;;;;5118297;28;20289;-57
2023/10/16 00:50:44;;;;;;;;;;;8.00;99.90;;;;;;5116859;28;19912;-57
2023/10/16 00:53:10;;;;;;;;;;;8.00;99.90;;;;;;5118291;28;19912;-57
2023/10/16 00:55:36;;;;;;;;;;;7.90;99.90;;;;;;5116709;28;19912;-57
2023/10/16 00:58:06;;;;;;;;;;;7.80;99.90;;;;;;5118138;28;19908;-57
2023/10/16 01:00:37;;;;;;;;;;;7.80;99.90;;;;;;5117792;28;19951;-57
2023/10/16 01:03:06;;;;;;;;;;;7.80;99.90;;;;;;5116596;28;19915;-57
2023/10/16 01:05:33;;;;;;;;;;;7.60;99.90;;;;;;5116522;28;19920;-57
2023/10/16 01:08:02;;;;;;;;;;;7.70;99.90;;;;;;5116607;28;19973;-57
2023/10/16 01:10:32;;;;;;;;;;;7.60;99.90;;;;;;5117900;28;20139;-57
2023/10/16 01:12:58;;;;;;;;;;;7.60;99.90;;;;;;5103518;28;19912;-57
2023/10/16 01:15:25;;;;;;;;;;;7.60;99.90;;;;;;5097275;28;20312;-57
2023/10/16 01:17:51;;;;;;;;;;;7.70;99.90;;;;;;5111547;28;19922;-57
2023/10/16 01:20:20;;;;;;;;;;;7.80;99.90;;;;;;5117678;28;20024;-57
2023/10/16 01:22:47;;;;;;;;;;;7.90;99.90;;;;;;5116261;28;19911;-57
2023/10/16 01:25:14;;;;;;;;;;;7.90;99.90;;;;;;5117451;28;19911;-57
2023/10/16 01:27:40;;;;;;;;;;;7.90;99.90;;;;;;5117638;28;20006;-57
2023/10/16 01:30:06;;;;;;;;;;;7.90;99.90;;;;;;5116121;28;20006;-57
2023/10/16 01:32:32;;;;;;;;;;;7.90;99.90;;;;;;5115975;28;20361;-57
2023/10/16 01:35:01;;;;;;;;;;;7.80;99.90;;;;;;5116128;28;19922;-57
2023/10/16 01:37:27;;;;;;;;;;;7.90;99.90;;;;;;5117476;28;19960;-57
2023/10/16 01:40:11;;;;;;;;;;;7.90;99.90;;;;;;5116078;28;19908;-57
2023/10/16 01:42:37;;;;;;;;;;;8.00;99.90;;;;;;5115981;28;20341;-57
2023/10/16 01:45:04;;;;;;;;;;;7.90;99.90;;;;;;5117076;28;19963;-57
2023/10/16 01:47:33;;;;;;;;;;;8.10;99.90;;;;;;5117252;28;19947;-57
2023/10/16 01:50:01;;;;;;;;;;;8.10;99.90;;;;;;5117119;28;19919;-57
2023/10/16 01:52:27;;;;;;;;;;;8.10;99.90;;;;;;5117071;28;19912;-57
2023/10/16 01:54:53;;;;;;;;;;;8.10;99.90;;;;;;5115499;28;19971;-57
2023/10/16 01:57:21;;;;;;;;;;;8.20;99.90;;;;;;5115701;28;20014;-57
2023/10/16 01:59:51;;;;;;;;;;;8.10;99.90;;;;;;5115583;28;19923;-57
2023/10/16 02:02:17;;;;;;;;;;;8.20;99.90;;;;;;5115493;28;19916;-57
2023/10/16 02:04:43;;;;;;;;;;;8.10;99.90;;;;;;5116783;28;19923;-57
2023/10/16 02:07:09;;;;;;;;;;;8.10;99.90;;;;;;5115498;28;19911;-57
2023/10/16 02:09:36;;;;;;;;;;;8.10;99.90;;;;;;5115448;28;19912;-57
2023/10/16 02:12:16;;;;;;;;;;;8.20;99.90;;;;;;5110085;28;19955;-57
2023/10/16 02:14:45;;;;;;;;;;;8.20;99.90;;;;;;5096264;28;19912;-57
2023/10/16 02:17:16;;;;;;;;;;;8.30;99.90;;;;;;5105047;28;19951;-57
2023/10/16 02:19:44;;;;;;;;;;;8.10;99.90;;;;;;5116690;28;19947;-57
2023/10/16 02:22:11;;;;;;;;;;;8.20;99.90;;;;;;5115201;28;19911;-57
2023/10/16 02:24:37;;;;;;;;;;;8.20;99.90;;;;;;5115193;28;20006;-57
2023/10/16 02:27:12;;;;;;;;;;;8.40;99.90;;;;;;5116589;28;19912;-57
2023/10/16 02:29:45;;;;;;;;;;;8.40;99.90;;;;;;5115178;28;19964;-57
2023/10/16 02:32:12;;;;;;;;;;;8.40;99.90;;;;;;5116568;28;19947;-57
2023/10/16 02:34:38;;;;;;;;;;;8.40;99.90;;;;;;5116449;28;20361;-57
2023/10/16 02:37:06;;;;;;;;;;;8.50;99.90;;;;;;5115068;28;19987;-57
2023/10/16 02:39:41;;;;;;;;;;;8.50;99.90;;;;;;5116477;28;19911;-57
2023/10/16 02:42:11;;;;;;;;;;;8.40;99.90;;;;;;5116374;28;20388;-57
2023/10/16 02:44:42;;;;;;;;;;;8.50;99.90;;;;;;5116257;28;19922;-57
2023/10/16 02:47:26;;;;;;;;;;;8.60;99.90;;;;;;5116385;28;19911;-57
2023/10/16 02:49:53;;;;;;;;;;;8.50;99.90;;;;;;5116275;28;19975;-57
2023/10/16 02:52:19;;;;;;;;;;;8.50;99.90;;;;;;5115008;28;20038;-57
2023/10/16 02:54:45;;;;;;;;;;;8.50;99.90;;;;;;5116055;28;20060;-57
2023/10/16 02:57:11;;;;;;;;;;;8.40;99.90;;;;;;5114910;28;20025;-57
2023/10/16 02:59:38;;;;;;;;;;;8.50;99.90;;;;;;5114880;28;19962;-57
2023/10/16 03:02:12;;;;;;;;;;;8.60;99.90;;;;;;5116002;28;19923;-57
2023/10/16 03:04:39;;;;;;;;;;;8.60;99.90;;;;;;5115040;28;19920;-57
2023/10/16 03:07:06;;;;;;;;;;;8.50;99.90;;;;;;5118916;28;20272;-57
2023/10/16 03:09:33;;;;;;;;;;;8.50;99.90;;;;;;5120270;28;19918;-57
2023/10/16 03:12:08;;;;;;;;;;;8.60;99.90;;;;;;5114242;28;20373;-57
2023/10/16 03:14:58;;;;;;;;;;;8.60;99.90;;;;;;5099683;28;19920;-57
2023/10/16 03:19:56;;;;;;;;;;;8.40;99.90;;;;;;5120155;28;19919;-57
2023/10/16 03:22:22;;;;;;;;;;;8.30;99.90;;;;;;5120053;28;19912;-57
2023/10/16 03:24:48;;;;;;;;;;;8.20;99.90;;;;;;5118526;28;20276;-57
2023/10/16 03:27:27;;;;;;;;;;;8.20;99.90;;;;;;5119940;28;19907;-57
2023/10/16 03:29:54;;;;;;;;;;;8.20;99.90;;;;;;5119895;28;19912;-57
2023/10/16 03:32:20;;;;;;;;;;;8.10;99.90;;;;;;5119806;28;19912;-57
2023/10/16 03:34:46;;;;;;;;;;;8.10;99.90;;;;;;5118610;28;19912;-57
2023/10/16 03:37:14;;;;;;;;;;;8.00;99.90;;;;;;5119823;28;19933;-57
2023/10/16 03:39:39;;;;;;;;;;;8.00;99.90;;;;;;5119688;28;19912;-57
2023/10/16 03:42:11;;;;;;;;;;;8.20;99.90;;;;;;5119580;28;19912;-57
2023/10/16 03:44:38;;;;;;;;;;;8.30;99.90;;;;;;5119548;28;20002;-57
2023/10/16 03:47:06;;;;;;;;;;;8.40;99.90;;;;;;5119512;28;20360;-57
2023/10/16 03:49:31;;;;;;;;;;;8.40;99.90;;;;;;5119524;28;19915;-57
2023/10/16 03:51:57;;;;;;;;;;;8.50;99.90;;;;;;5119297;28;19911;-57
2023/10/16 03:54:35;;;;;;;;;;;8.50;99.90;;;;;;5119278;27;19977;-57
2023/10/16 03:57:01;;;;;;;;;;;8.50;99.90;;;;;;5119444;28;19958;-57
2023/10/16 03:59:29;;;;;;;;;;;8.40;99.90;;;;;;5119344;28;20280;-57
2023/10/16 04:01:56;;;;;;;;;;;8.40;99.90;;;;;;5119039;28;19940;-57
2023/10/16 04:04:26;;;;;;;;;;;8.40;99.90;;;;;;5119068;28;19912;-57
2023/10/16 04:06:56;;;;;;;;;;;8.30;99.90;;;;;;5119267;28;19916;-57
2023/10/16 04:09:22;;;;;;;;;;;8.30;99.90;;;;;;5119164;28;20006;-57
2023/10/16 04:11:54;;;;;;;;;;;8.20;99.90;;;;;;5114647;28;20431;-57
2023/10/16 04:14:36;;;;;;;;;;;8.20;99.90;;;;;;5098479;28;19912;-57
2023/10/16 04:17:02;;;;;;;;;;;8.00;99.90;;;;;;5106057;28;19912;-57
2023/10/16 04:19:34;;;;;;;;;;;8.20;99.90;;;;;;5119142;28;19918;-57
2023/10/16 04:22:09;;;;;;;;;;;8.20;99.90;;;;;;5118859;28;19919;-57
2023/10/16 04:24:44;;;;;;;;;;;8.20;99.90;;;;;;5118642;28;19916;-57
2023/10/16 04:37:49;;;;;;;;;;;8.30;99.90;;;;;;5118306;28;20279;-57
2023/10/16 04:45:26;;;;;;;;;;;8.20;99.90;;;;;;5118344;28;20331;-57
2023/10/16 04:53:11;;;;;;;;;;;8.30;99.90;;;;;;5118138;28;20277;-57
2023/10/16 05:03:23;;;;;;;;;;;8.30;99.90;;;;;;5118102;28;19919;-57
2023/10/16 05:08:59;;;;;;;;;;;8.20;99.90;;;;;;5117938;28;19911;-57
2023/10/16 05:11:27;;;;;;;;;;;8.20;99.90;;;;;;5116750;27;19958;-57
2023/10/16 05:14:19;;;;;;;;;;;8.30;99.90;;;;;;5097245;28;19912;-57
2023/10/16 06:14:35;;;;;;;;;;;9.00;99.90;;;;;;5093156;28;19912;-57
2023/10/16 06:17:12;;;;;;;;;;;9.00;99.90;;;;;;5095049;28;19997;-56
2023/10/16 06:19:42;;;;;;;;;;;9.10;99.90;;;;;;5089975;28;19916;-57
2023/10/16 06:22:08;;;;;;;;;;;9.00;99.90;;;;;;5094934;28;19954;-57
2023/10/16 06:24:44;;;;;;;;;;;9.00;99.90;;;;;;5082598;28;20015;-57
2023/10/16 06:27:19;;;;;;;;;;;9.00;99.90;;;;;;5086955;28;19912;-57
2023/10/16 06:29:51;;;;;;;;;;;9.00;99.90;;;;;;5094492;28;20207;-56
2023/10/16 06:32:20;;;;;;;;;;;9.00;99.90;;;;;;5096006;28;19912;-57
2023/10/16 06:34:49;;;;;;;;;;;8.90;99.90;;;;;;5094503;28;20448;-57
2023/10/16 06:37:19;;;;;;;;;;;8.80;99.90;;;;;;5095596;28;20344;-57
2023/10/16 06:39:45;;;;;;;;;;;8.90;99.90;;;;;;5094865;28;20327;-57
2023/10/16 06:42:17;;;;;;;;;;;8.80;99.90;;;;;;5095105;28;19916;-57
2023/10/16 06:44:56;;;;;;;;;;;9.00;99.90;;;;;;5095809;28;19916;-57
2023/10/16 06:47:41;;;;;;;;;;;9.10;99.90;;;;;;5096464;28;19912;-56
2023/10/16 06:50:32;;;;;;;;;;;9.10;99.90;;;;;;5095672;28;19912;-56
2023/10/16 06:53:01;;;;;;;;;;;9.20;99.90;;;;;;5095717;28;19926;-56
2023/10/16 06:55:27;;;;;;;;;;;9.20;99.90;;;;;;5095700;28;20007;-57
2023/10/16 06:57:54;;;;;;;;;;;9.30;99.90;;;;;;5094645;28;19919;-56
2023/10/16 07:00:23;;;;;;;;;;;9.40;99.90;;;;;;5094387;28;20265;-56
2023/10/16 07:02:54;;;;;;;;;;;9.20;99.90;;;;;;5095943;28;19943;-56
2023/10/16 07:05:23;;;;;;;;;;;9.30;99.90;;;;;;5093105;28;19916;-57
2023/10/16 07:07:49;;;;;;;;;;;9.40;99.90;;;;;;5096017;28;19923;-57
2023/10/16 07:10:15;;;;;;;;;;;9.50;99.90;;;;;;5092167;28;19919;-57
2023/10/16 07:12:59;;;;;;;;;;;9.60;99.90;;;;;;5094647;28;20002;-57
2023/10/16 07:15:31;;;;;;;;;;;9.50;99.90;;;;;;5092388;28;19946;-57
2023/10/16 07:18:05;;;;;;;;;;;9.30;99.90;;;;;;5094630;28;19919;-57
2023/10/16 07:20:34;;;;;;;;;;;9.40;99.90;;;;;;5089982;28;20268;-57
2023/10/16 07:23:00;;;;;;;;;;;9.60;99.90;;;;;;5089644;28;19920;-57
2023/10/16 07:25:37;;;;;;;;;;;9.80;99.90;;;;;;5090118;28;19943;-57
2023/10/16 07:28:10;;;;;;;;;;;10.30;99.90;;;;;;5087387;28;19948;-58
2023/10/16 07:30:42;;;;;;;;;;;10.80;99.90;;;;;;5087834;28;19911;-58
2023/10/16 07:33:15;;;;;;;;;;;11.50;99.90;;;;;;5088353;28;19917;-57
2023/10/16 07:35:42;;;;;;;;;;;12.40;99.90;;;;;;5092427;28;19919;-57
2023/10/16 07:38:09;;;;;;;;;;;13.10;99.00;;;;;;5092242;28;19973;-57
2023/10/16 07:40:37;;;;;;;;;;;14.00;98.40;;;;;;5090378;28;19965;-57
2023/10/16 07:43:08;;;;;;;;;;;14.30;93.70;;;;;;5093785;28;20422;-57
2023/10/16 07:45:34;;;;;;;;;;;14.60;94.00;;;;;;5091523;28;19978;-57
2023/10/16 07:48:17;;;;;;;;;;;15.90;92.60;;;;;;5090864;28;19939;-57
2023/10/16 07:50:43;;;;;;;;;;;16.60;86.80;;;;;;5092104;28;19919;-58
2023/10/16 07:53:09;;;;;;;;;;;17.50;75.50;;;;;;5088481;28;20007;-58
2023/10/16 07:55:40;;;;;;;;;;;17.40;75.40;;;;;;5097288;28;19912;-57
2023/10/16 07:58:15;;;;;;;;;;;17.20;70.00;;;;;;5093910;28;19987;-58
2023/10/16 08:00:59;;;;;;;;;;;16.70;70.50;;;;;;5091437;28;19920;-58
2023/10/16 08:03:26;;;;;;;;;;;15.30;72.10;;;;;;5095234;28;19924;-58
2023/10/16 08:05:52;;;;;;;;;;;14.90;75.40;;;;;;5096104;28;19930;-58
2023/10/16 08:08:25;;;;;;;;;;;14.70;73.00;;;;;;5097149;28;20369;-58
2023/10/16 08:10:52;;;;;;;;;;;14.30;76.20;;;;;;5094043;28;19916;-58
2023/10/16 08:13:18;;;;;;;;;;;13.70;80.00;;;;;;5096180;28;19912;-58
2023/10/16 08:15:51;;;;;;;;;;;13.80;80.70;;;;;;5092807;28;19963;-58
2023/10/16 08:18:18;;;;;;;;;;;13.70;82.70;;;;;;5096482;28;20319;-58
2023/10/16 08:20:59;;;;;;;;;;;13.30;84.20;;;;;;5096838;28;19920;-58
2023/10/16 08:23:31;;;;;;;;;;;12.90;81.60;;;;;;5096033;28;19920;-58
2023/10/16 08:26:00;;;;;;;;;;;12.80;83.50;;;;;;5091221;28;20257;-58
2023/10/16 08:28:35;;;;;;;;;;;13.00;82.10;;;;;;5094451;28;19924;-58
2023/10/16 08:31:22;;;;;;;;;;;13.20;82.10;;;;;;5094989;28;20015;-59
2023/10/16 08:33:51;;;;;;;;;;;13.20;82.00;;;;;;5093487;28;20234;-58
2023/10/16 08:36:20;;;;;;;;;;;14.10;78.80;;;;;;5092164;28;19916;-58
2023/10/16 08:38:52;;;;;;;;;;;15.00;76.70;;;;;;5085755;28;19966;-58
2023/10/16 08:41:24;;;;;;;;;;;16.00;73.10;;;;;;5090433;27;19912;-59
2023/10/16 08:43:54;;;;;;;;;;;16.10;75.00;;;;;;5095637;28;19923;-58
2023/10/16 08:46:53;;;;;;;;;;;17.10;71.50;;;;;;5097196;28;20350;-58
2023/10/16 08:49:12;;;;;;;;;;;18.80;68.60;;;;;;5092459;28;19912;-58
2023/10/16 08:51:38;;;;;;;;;;;18.70;56.30;;;;;;5097577;28;19913;-58
2023/10/16 08:54:35;;;;;;;;;;;18.20;57.30;;;;;;5087493;28;19912;-58
2023/10/16 08:56:53;;;;;;;;;;;18.80;56.90;;;;;;5091863;28;19912;-58
2023/10/16 08:59:20;;;;;;;;;;;19.10;59.50;;;;;;5092702;28;19916;-58
2023/10/16 09:01:48;;;;;;;;;;;20.10;57.60;;;;;;5094824;28;19916;-59
2023/10/16 09:04:14;;;;;;;;;;;20.30;51.30;;;;;;5091333;28;20388;-58
2023/10/16 09:06:40;;;;;;;;;;;20.10;49.20;;;;;;5092994;28;19923;-59
2023/10/16 09:09:13;;;;;;;;;;;20.60;46.40;;;;;;5090086;28;19912;-58
2023/10/16 09:11:39;;;;;;;;;;;20.30;42.20;;;;;;5077662;28;19927;-58
2023/10/16 09:14:07;;;;;;;;;;;19.70;43.80;;;;;;5098479;28;19960;-59
2023/10/16 09:16:34;;;;;;;;;;;19.50;44.50;;;;;;5099364;28;20061;-59
2023/10/16 09:19:06;;;;;;;;;;;19.50;44.70;;;;;;5089571;28;19912;-59
2023/10/16 09:21:38;;;;;;;;;;;19.80;45.20;;;;;;5088970;28;20015;-59
2023/10/16 09:24:05;;;;;;;;;;;20.60;44.00;;;;;;5089159;28;20007;-59
2023/10/16 09:26:38;;;;;;;;;;;20.30;45.10;;;;;;5095004;28;19916;-59
2023/10/16 09:29:13;;;;;;;;;;;21.00;41.70;;;;;;5092309;28;20361;-59
2023/10/16 09:31:41;;;;;;;;;;;21.40;46.20;;;;;;5094842;28;19926;-59
2023/10/16 09:34:06;;;;;;;;;;;21.20;39.60;;;;;;5095230;28;20448;-59
2023/10/16 09:36:36;;;;;;;;;;;21.30;41.60;;;;;;5096108;28;19943;-59
2023/10/16 09:39:16;;;;;;;;;;;22.20;39.30;;;;;;5087601;28;19912;-59
2023/10/16 09:41:42;;;;;;;;;;;22.30;35.80;;;;;;5090002;28;20330;-59
2023/10/16 09:49:13;;;;;;;;;;;18.90;40.90;;;;;;5092598;28;19913;-58
2023/10/16 09:51:39;;;;;;;;;;;19.00;42.70;;;;;;5090555;28;20396;-58
2023/10/16 09:54:09;;;;;;;;;;;20.00;37.80;;;;;;5083920;27;19961;-59
2023/10/16 09:56:36;;;;;;;;;;;20.10;38.00;;;;;;5084306;28;19954;-59
2023/10/16 09:59:04;;;;;;;;;;;19.70;37.00;;;;;;5090407;28;19959;-60
2023/10/16 10:01:31;;;;;;;;;;;18.90;37.80;;;;;;5085132;28;19916;-59
2023/10/16 10:03:58;;;;;;;;;;;18.60;41.00;;;;;;5075849;28;20492;-59
2023/10/16 10:06:32;;;;;;;;;;;18.00;40.20;;;;;;5093318;27;19920;-59
2023/10/16 10:11:38;;;;;;;;;;;17.30;43.50;;;;;;5088940;28;20400;-58
2023/10/16 10:14:09;;;;;;;;;;;16.50;46.60;;;;;;5094149;28;19920;-59
2023/10/16 10:16:45;;;;;;;;;;;17.40;45.70;;;;;;5092472;28;19920;-59
2023/10/16 10:19:35;;;;;;;;;;;18.30;42.90;;;;;;5094985;28;20365;-58
2023/10/16 10:22:26;;;;;;;;;;;19.00;39.60;;;;;;5090490;28;19916;-58
2023/10/16 10:25:58;;;;;;;;;;;20.00;39.30;;;;;;5086321;28;19976;-59
2023/10/16 10:28:09;;;;;;;;;;;20.00;38.60;;;;;;5082035;28;19920;-59
2023/10/16 10:30:40;;;;;;;;;;;20.00;38.60;;;;;;5095547;28;19916;-68
2023/10/16 10:33:07;;;;;;;;;;;20.40;36.10;;;;;;5091135;28;19913;-68
2023/10/16 10:35:38;;;;;;;;;;;20.10;35.00;;;;;;5085562;28;19928;-68
2023/10/16 10:38:07;;;;;;;;;;;18.70;42.30;;;;;;5089851;27;19912;-68
2023/10/16 10:40:35;;;;;;;;;;;18.30;40.20;;;;;;5092567;28;19912;-68
2023/10/16 10:43:04;;;;;;;;;;;18.10;44.70;;;;;;5094936;28;19919;-68
2023/10/16 10:45:36;;;;;;;;;;;18.10;38.40;;;;;;5092075;28;20285;-68
2023/10/16 10:48:11;;;;;;;;;;;18.40;43.70;;;;;;5094248;28;20326;-68
2023/10/16 10:50:40;;;;;;;;;;;18.90;40.80;;;;;;5085790;28;19919;-68
2023/10/16 10:53:13;;;;;;;;;;;18.50;42.20;;;;;;5093090;28;19939;-67
2023/10/16 10:55:57;;;;;;;;;;;17.90;42.90;;;;;;5090784;28;19915;-67
2023/10/16 10:58:32;;;;;;;;;;;17.90;40.80;;;;;;5087841;28;19919;-68
2023/10/16 11:01:16;;;;;;;;;;;17.70;40.50;;;;;;5089047;28;20332;-68
2023/10/16 11:03:45;;;;;;;;;;;17.60;41.50;;;;;;5091502;28;19924;-68
2023/10/16 11:06:39;;;;;;;;;;;17.80;36.50;;;;;;5094878;28;19916;-68
2023/10/16 11:09:11;;;;;;;;;;;18.00;39.10;;;;;;5088912;27;20354;-68
2023/10/16 11:11:39;;;;;;;;;;;18.70;37.40;;;;;;5095439;28;20377;-67
2023/10/16 11:14:07;;;;;;;;;;;18.90;35.90;;;;;;5095280;28;19966;-67
2023/10/16 11:16:40;;;;;;;;;;;19.60;35.80;;;;;;5086874;28;19912;-66
2023/10/16 11:19:08;;;;;;;;;;;19.60;34.70;;;;;;5114387;28;20007;-68
2023/10/16 11:21:43;;;;;;;;;;;19.70;35.00;;;;;;5111311;28;19922;-66
2023/10/16 11:24:10;;;;;;;;;;;19.00;32.80;;;;;;5106883;28;19927;-66
2023/10/16 11:26:38;;;;;;;;;;;17.70;35.80;;;;;;5096740;28;20361;-66
2023/10/16 11:29:04;;;;;;;;;;;17.90;35.20;;;;;;5081935;28;19912;-66
2023/10/16 11:31:30;;;;;;;;;;;17.70;35.50;;;;;;5078433;28;19913;-66
2023/10/16 11:34:19;;;;;;;;;;;18.70;36.20;;;;;;5095983;28;19912;-66
2023/10/16 11:36:50;;;;;;;;;;;19.20;34.50;;;;;;5082480;28;19916;-66
2023/10/16 11:39:19;;;;;;;;;;;19.30;34.30;;;;;;5096041;28;19912;-66
2023/10/16 11:41:46;;;;;;;;;;;18.60;33.80;;;;;;5098854;28;19918;-66
2023/10/16 11:44:16;;;;;;;;;;;19.20;32.90;;;;;;5092522;28;20411;-66
2023/10/16 11:46:45;;;;;;;;;;;18.50;31.20;;;;;;5092682;28;20008;-66
2023/10/16 11:52:19;;;;;;;;;;;18.50;37.20;;;;;;5075398;28;19996;-66
2023/10/16 11:54:57;;;;;;;;;;;17.50;37.10;;;;;;5097495;28;19947;-66
2023/10/16 11:57:23;;;;;;;;;;;18.80;40.20;;;;;;5098327;28;20285;-66
2023/10/16 11:59:51;;;;;;;;;;;18.20;33.00;;;;;;5098504;28;19916;-65
2023/10/16 12:02:21;;;;;;;;;;;16.50;35.30;;;;;;5098541;28;19916;-66
2023/10/16 12:04:47;;;;;;;;;;;17.20;36.80;;;;;;5091921;28;19916;-66
2023/10/16 12:07:13;;;;;;;;;;;17.50;35.40;;;;;;5098659;28;19975;-66
2023/10/16 12:09:47;;;;;;;;;;;17.30;35.80;;;;;;5091750;28;19924;-66
2023/10/16 12:12:19;;;;;;;;;;;17.50;35.70;;;;;;5092779;28;19955;-67
2023/10/16 12:14:49;;;;;;;;;;;17.70;36.00;;;;;;5096757;28;19912;-67
2023/10/16 12:17:19;;;;;;;;;;;18.50;36.40;;;;;;5108610;27;19919;-67
2023/10/16 12:19:45;;;;;;;;;;;18.20;36.10;;;;;;5110624;28;20065;-67
2023/10/16 12:22:15;;;;;;;;;;;18.60;38.30;;;;;;5087111;28;19920;-67
2023/10/16 12:24:43;;;;;;;;;;;18.60;37.00;;;;;;5091728;28;19916;-67
2023/10/16 12:27:09;;;;;;;;;;;19.00;36.30;;;;;;5095183;28;20289;-67
2023/10/16 12:29:35;;;;;;;;;;;18.60;31.80;;;;;;5098579;28;19958;-67
2023/10/16 12:32:03;;;;;;;;;;;18.90;34.20;;;;;;5098430;28;20320;-67
2023/10/16 12:34:32;;;;;;;;;;;18.70;32.50;;;;;;5098647;28;20070;-67
2023/10/16 12:36:59;;;;;;;;;;;18.70;31.40;;;;;;5096292;27;20126;-67
2023/10/16 12:39:24;;;;;;;;;;;18.00;31.80;;;;;;5097175;28;19961;-67
2023/10/16 12:41:53;;;;;;;;;;;17.90;33.60;;;;;;5097251;28;19916;-67
2023/10/16 12:44:19;;;;;;;;;;;18.20;33.40;;;;;;5096569;28;20385;-67
2023/10/16 12:46:45;;;;;;;;;;;18.10;32.50;;;;;;5094949;28;19916;-67
2023/10/16 12:49:11;;;;;;;;;;;17.80;34.60;;;;;;5095877;27;19922;-66
2023/10/16 12:51:38;;;;;;;;;;;18.40;37.10;;;;;;5096785;28;19930;-67
2023/10/16 12:54:06;;;;;;;;;;;18.60;35.20;;;;;;5096711;28;19918;-67
2023/10/16 12:56:35;;;;;;;;;;;18.10;33.60;;;;;;5096978;28;19919;-67
2023/10/16 12:59:03;;;;;;;;;;;17.20;35.30;;;;;;5097424;28;19913;-67
2023/10/16 13:01:29;;;;;;;;;;;17.80;35.30;;;;;;5097246;28;20377;-66
2023/10/16 13:04:00;;;;;;;;;;;16.90;36.10;;;;;;5097396;28;19935;-66
2023/10/16 13:06:30;;;;;;;;;;;17.30;35.80;;;;;;5096949;28;19977;-66
2023/10/16 13:08:56;;;;;;;;;;;16.80;36.80;;;;;;5097260;28;20315;-67
2023/10/16 13:11:22;;;;;;;;;;;17.00;35.50;;;;;;5097108;28;19916;-66
2023/10/16 13:13:48;;;;;;;;;;;16.20;36.40;;;;;;5097486;28;19912;-66
2023/10/16 13:16:22;;;;;;;;;;;16.10;36.30;;;;;;5098633;28;19915;-66
2023/10/16 13:18:59;;;;;;;;;;;16.30;37.00;;;;;;5117441;28;19916;-66
2023/10/16 13:21:34;;;;;;;;;;;15.90;36.30;;;;;;5117360;28;19935;-66
2023/10/16 13:24:09;;;;;;;;;;;16.40;39.00;;;;;;5117087;28;20408;-66
2023/10/16 13:26:37;;;;;;;;;;;16.40;35.10;;;;;;5117606;28;19959;-66
2023/10/16 13:29:07;;;;;;;;;;;16.10;37.60;;;;;;5117712;28;19908;-66
2023/10/16 13:31:41;;;;;;;;;;;16.00;38.70;;;;;;5117534;28;19916;-66
2023/10/16 13:34:11;;;;;;;;;;;15.40;37.60;;;;;;5117475;28;19919;-66
2023/10/16 13:36:37;;;;;;;;;;;16.00;40.20;;;;;;5116998;28;20430;-66
2023/10/16 13:39:08;;;;;;;;;;;16.40;38.50;;;;;;5117369;28;19994;-66
2023/10/16 13:41:50;;;;;;;;;;;16.60;40.10;;;;;;5117060;28;19949;-66
2023/10/16 13:44:17;;;;;;;;;;;16.90;39.70;;;;;;5116995;28;19919;-66
2023/10/16 13:46:44;;;;;;;;;;;16.80;39.30;;;;;;5117348;28;20022;-66
2023/10/16 13:49:14;;;;;;;;;;;16.50;42.70;;;;;;5116871;28;20019;-66
2023/10/16 13:51:42;;;;;;;;;;;16.70;42.90;;;;;;5116599;28;19915;-66
2023/10/16 13:54:14;;;;;;;;;;;16.60;37.70;;;;;;5116983;28;20353;-66
2023/10/16 13:56:40;;;;;;;;;;;16.60;38.50;;;;;;5115845;28;19915;-66
2023/10/16 13:59:06;;;;;;;;;;;16.50;38.70;;;;;;5116706;28;19919;-66
2023/10/16 14:01:38;;;;;;;;;;;16.50;43.30;;;;;;5116751;28;20360;-66
2023/10/16 14:04:04;;;;;;;;;;;15.90;38.70;;;;;;5117292;28;19919;-66
2023/10/16 14:06:33;;;;;;;;;;;16.00;40.20;;;;;;5116380;28;19920;-66
2023/10/16 14:09:10;;;;;;;;;;;16.10;41.10;;;;;;5116881;28;19912;-66
2023/10/16 14:11:38;;;;;;;;;;;16.20;41.00;;;;;;5114516;28;19943;-66
2023/10/16 14:14:10;;;;;;;;;;;16.20;41.10;;;;;;5095947;28;19919;-66
2023/10/16 14:16:35;;;;;;;;;;;16.10;41.20;;;;;;5101183;28;19972;-66
2023/10/16 14:19:06;;;;;;;;;;;15.80;42.00;;;;;;5098476;28;19911;-66
2023/10/16 14:21:32;;;;;;;;;;;15.70;42.80;;;;;;5116218;28;19935;-66
2023/10/16 14:23:59;;;;;;;;;;;16.00;42.30;;;;;;5116651;28;19912;-66
2023/10/16 14:26:25;;;;;;;;;;;15.90;45.40;;;;;;5116431;28;20372;-66
2023/10/16 14:28:59;;;;;;;;;;;16.00;44.40;;;;;;5116364;28;19964;-66
2023/10/16 14:31:26;;;;;;;;;;;15.80;45.70;;;;;;5116370;28;19912;-66
2023/10/16 14:33:53;;;;;;;;;;;15.50;46.90;;;;;;5116684;28;19916;-66
2023/10/16 14:36:19;;;;;;;;;;;15.40;47.30;;;;;;5115999;28;19912;-66
2023/10/16 14:38:45;;;;;;;;;;;15.50;48.30;;;;;;5116427;28;19912;-66
2023/10/16 14:41:17;;;;;;;;;;;15.40;46.20;;;;;;5116285;28;20393;-66
2023/10/16 14:43:46;;;;;;;;;;;15.50;49.90;;;;;;5116221;28;20010;-66
2023/10/16 14:46:12;;;;;;;;;;;15.40;49.50;;;;;;5115985;28;19986;-66
2023/10/16 14:48:38;;;;;;;;;;;14.90;52.00;;;;;;5116253;28;19965;-66
2023/10/16 14:51:06;;;;;;;;;;;14.70;52.80;;;;;;5116079;28;19959;-66
2023/10/16 14:53:34;;;;;;;;;;;14.50;53.20;;;;;;5116406;28;19911;-66
2023/10/16 14:56:00;;;;;;;;;;;14.30;53.00;;;;;;5116230;28;19998;-66
2023/10/16 14:58:25;;;;;;;;;;;14.30;54.60;;;;;;5115924;28;19962;-66
2023/10/16 15:00:51;;;;;;;;;;;14.10;55.20;;;;;;5116552;28;19923;-66
2023/10/16 15:03:17;;;;;;;;;;;14.00;57.20;;;;;;5120615;28;19981;-66
2023/10/16 15:05:44;;;;;;;;;;;14.00;57.00;;;;;;5119926;28;19973;-66
2023/10/16 15:08:13;;;;;;;;;;;14.00;58.70;;;;;;5120394;28;19912;-66
2023/10/16 15:10:42;;;;;;;;;;;13.90;57.20;;;;;;5120245;28;20104;-66
2023/10/16 15:13:08;;;;;;;;;;;13.90;57.70;;;;;;5104354;28;19916;-66
2023/10/16 15:15:34;;;;;;;;;;;13.80;59.60;;;;;;5099666;28;20270;-66
2023/10/16 15:17:59;;;;;;;;;;;13.80;58.30;;;;;;5116385;28;19916;-66
2023/10/16 15:20:26;;;;;;;;;;;13.80;57.90;;;;;;5119674;28;19912;-66
2023/10/16 15:22:52;;;;;;;;;;;13.80;58.30;;;;;;5119922;28;19923;-66
2023/10/16 15:25:17;;;;;;;;;;;13.40;58.80;;;;;;5119897;28;19915;-66
2023/10/16 15:27:46;;;;;;;;;;;13.30;61.10;;;;;;5119771;28;19916;-66
2023/10/16 15:30:12;;;;;;;;;;;13.20;61.90;;;;;;5119807;28;19912;-66
2023/10/16 15:32:43;;;;;;;;;;;13.20;61.60;;;;;;5119828;28;19951;-66
2023/10/16 15:35:09;;;;;;;;;;;13.20;61.40;;;;;;5119727;28;19916;-66
2023/10/16 15:37:40;;;;;;;;;;;12.80;63.30;;;;;;5119626;27;19911;-66
2023/10/16 15:40:06;;;;;;;;;;;12.70;64.70;;;;;;5119699;28;19911;-66
2023/10/16 15:42:32;;;;;;;;;;;12.50;66.00;;;;;;5119326;28;19947;-66
2023/10/16 15:45:01;;;;;;;;;;;12.40;66.10;;;;;;5119605;28;19916;-66
2023/10/16 15:47:29;;;;;;;;;;;12.40;66.10;;;;;;5119618;28;19932;-66
2023/10/16 15:49:58;;;;;;;;;;;12.10;66.80;;;;;;5119250;28;20383;-66
2023/10/16 15:52:24;;;;;;;;;;;12.10;67.50;;;;;;5119292;27;19916;-66
2023/10/16 15:54:50;;;;;;;;;;;12.10;68.10;;;;;;5119359;28;19969;-66
2023/10/16 15:57:16;;;;;;;;;;;12.00;69.00;;;;;;5119065;28;19919;-66
2023/10/16 15:59:42;;;;;;;;;;;12.00;69.90;;;;;;5119338;28;19908;-66
2023/10/16 16:02:11;;;;;;;;;;;11.90;69.60;;;;;;5118723;28;19916;-66
2023/10/16 16:04:39;;;;;;;;;;;11.90;69.90;;;;;;5119023;28;19947;-66
2023/10/16 16:07:08;;;;;;;;;;;11.80;70.60;;;;;;5119422;28;19963;-66
2023/10/16 16:09:35;;;;;;;;;;;11.60;72.10;;;;;;5119391;28;20018;-66
2023/10/16 16:12:02;;;;;;;;;;;11.40;74.10;;;;;;5112447;27;20097;-66
2023/10/16 16:14:27;;;;;;;;;;;11.40;74.00;;;;;;5098551;28;19912;-65
2023/10/16 16:16:53;;;;;;;;;;;11.40;74.00;;;;;;5106036;28;20280;-65
2023/10/16 16:19:19;;;;;;;;;;;11.40;73.60;;;;;;5118875;28;20340;-66